sensor_id;sensor_type;location;lat;lon;timestamp;P1;durP1;ratioP1;P2;durP2;ratioP2
912;SDS011;443;51.448;7.028;2023-12-20T00:00:28;4.63;;;2.47;;
912;SDS011;443;51.448;7.028;2023-12-20T00:02:55;10.33;;;6.87;;
912;SDS011;443;51.448;7.028;2023-12-20T00:05:22;11.37;;;6.73;;
912;SDS011;443;51.448;7.028;2023-12-20T00:07:48;11.27;;;6.57;;
912;SDS011;443;51.448;7.028;2023-12-20T00:10:17;8.87;;;6.63;;
912;SDS011;443;51.448;7.028;2023-12-20T00:12:44;11.80;;;6.37;;
912;SDS011;443;51.448;7.028;2023-12-20T00:15:10;11.73;;;6.73;;
912;SDS011;443;51.448;7.028;2023-12-20T00:17:37;6.90;;;4.40;;
912;SDS011;443;51.448;7.028;2023-12-20T00:20:04;11.67;;;7.03;;
912;SDS011;443;51.448;7.028;2023-12-20T00:22:32;7.07;;;6.20;;
912;SDS011;443;51.448;7.028;2023-12-20T00:24:59;7.83;;;5.77;;
912;SDS011;443;51.448;7.028;2023-12-20T00:27:27;10.00;;;5.70;;
912;SDS011;443;51.448;7.028;2023-12-20T00:29:54;7.97;;;5.03;;
912;SDS011;443;51.448;7.028;2023-12-20T00:32:21;9.80;;;6.67;;
912;SDS011;443;51.448;7.028;2023-12-20T00:34:48;10.13;;;5.83;;
912;SDS011;443;51.448;7.028;2023-12-20T00:37:15;7.27;;;5.80;;
912;SDS011;443;51.448;7.028;2023-12-20T00:39:42;9.23;;;5.80;;
912;SDS011;443;51.448;7.028;2023-12-20T00:42:09;9.53;;;6.23;;
912;SDS011;443;51.448;7.028;2023-12-20T00:44:37;11.10;;;4.90;;
912;SDS011;443;51.448;7.028;2023-12-20T00:47:03;11.77;;;5.77;;
912;SDS011;443;51.448;7.028;2023-12-20T00:49:30;5.50;;;4.13;;
912;SDS011;443;51.448;7.028;2023-12-20T00:51:57;5.30;;;3.67;;
912;SDS011;443;51.448;7.028;2023-12-20T00:54:24;9.53;;;4.43;;
912;SDS011;443;51.448;7.028;2023-12-20T00:56:51;7.03;;;5.13;;
912;SDS011;443;51.448;7.028;2023-12-20T00:59:17;7.00;;;4.80;;
912;SDS011;443;51.448;7.028;2023-12-20T01:01:46;4.70;;;3.50;;
912;SDS011;443;51.448;7.028;2023-12-20T01:04:13;6.63;;;4.40;;
912;SDS011;443;51.448;7.028;2023-12-20T01:06:39;5.30;;;3.70;;
912;SDS011;443;51.448;7.028;2023-12-20T01:09:07;7.63;;;4.47;;
912;SDS011;443;51.448;7.028;2023-12-20T01:11:34;10.30;;;4.90;;
912;SDS011;443;51.448;7.028;2023-12-20T01:14:01;10.40;;;4.97;;
912;SDS011;443;51.448;7.028;2023-12-20T01:16:27;6.23;;;4.17;;
912;SDS011;443;51.448;7.028;2023-12-20T01:18:55;8.80;;;4.63;;
912;SDS011;443;51.448;7.028;2023-12-20T01:21:22;7.10;;;4.70;;
912;SDS011;443;51.448;7.028;2023-12-20T01:23:49;5.60;;;3.40;;
912;SDS011;443;51.448;7.028;2023-12-20T01:26:16;7.27;;;5.70;;
912;SDS011;443;51.448;7.028;2023-12-20T01:28:43;8.93;;;4.73;;
912;SDS011;443;51.448;7.028;2023-12-20T01:31:10;6.77;;;3.57;;
912;SDS011;443;51.448;7.028;2023-12-20T01:33:36;10.03;;;4.17;;
912;SDS011;443;51.448;7.028;2023-12-20T01:36:05;7.57;;;4.10;;
912;SDS011;443;51.448;7.028;2023-12-20T01:38:32;6.53;;;3.90;;
912;SDS011;443;51.448;7.028;2023-12-20T01:40:58;7.50;;;3.80;;
912;SDS011;443;51.448;7.028;2023-12-20T01:43:25;9.67;;;5.10;;
912;SDS011;443;51.448;7.028;2023-12-20T01:45:52;5.90;;;3.80;;
912;SDS011;443;51.448;7.028;2023-12-20T01:48:21;8.43;;;3.87;;
912;SDS011;443;51.448;7.028;2023-12-20T01:50:48;7.07;;;3.63;;
912;SDS011;443;51.448;7.028;2023-12-20T01:53:16;4.40;;;3.40;;
912;SDS011;443;51.448;7.028;2023-12-20T01:55:46;8.70;;;3.43;;
912;SDS011;443;51.448;7.028;2023-12-20T01:58:16;6.67;;;4.20;;
912;SDS011;443;51.448;7.028;2023-12-20T02:00:44;6.77;;;4.30;;
912;SDS011;443;51.448;7.028;2023-12-20T02:03:11;6.60;;;4.20;;
912;SDS011;443;51.448;7.028;2023-12-20T02:05:38;6.70;;;5.60;;
912;SDS011;443;51.448;7.028;2023-12-20T02:08:06;8.07;;;4.10;;
912;SDS011;443;51.448;7.028;2023-12-20T02:10:34;6.17;;;3.73;;
912;SDS011;443;51.448;7.028;2023-12-20T02:13:01;5.97;;;3.50;;
912;SDS011;443;51.448;7.028;2023-12-20T02:15:28;8.97;;;3.37;;
912;SDS011;443;51.448;7.028;2023-12-20T02:17:54;9.13;;;4.07;;
912;SDS011;443;51.448;7.028;2023-12-20T02:20:21;4.70;;;3.07;;
912;SDS011;443;51.448;7.028;2023-12-20T02:22:49;7.30;;;3.80;;
912;SDS011;443;51.448;7.028;2023-12-20T02:25:16;5.80;;;3.10;;
912;SDS011;443;51.448;7.028;2023-12-20T02:27:43;8.60;;;4.27;;
912;SDS011;443;51.448;7.028;2023-12-20T02:30:10;6.40;;;3.57;;
912;SDS011;443;51.448;7.028;2023-12-20T02:32:37;6.23;;;2.40;;
912;SDS011;443;51.448;7.028;2023-12-20T02:35:04;10.80;;;4.37;;
912;SDS011;443;51.448;7.028;2023-12-20T02:37:32;4.43;;;2.37;;
912;SDS011;443;51.448;7.028;2023-12-20T02:40:00;5.43;;;2.40;;
912;SDS011;443;51.448;7.028;2023-12-20T02:42:28;5.33;;;3.50;;
912;SDS011;443;51.448;7.028;2023-12-20T02:44:54;3.77;;;2.07;;
912;SDS011;443;51.448;7.028;2023-12-20T02:47:21;6.07;;;3.90;;
912;SDS011;443;51.448;7.028;2023-12-20T02:49:48;5.17;;;3.80;;
912;SDS011;443;51.448;7.028;2023-12-20T02:52:15;7.97;;;4.03;;
912;SDS011;443;51.448;7.028;2023-12-20T02:54:42;7.00;;;4.03;;
912;SDS011;443;51.448;7.028;2023-12-20T02:57:10;6.10;;;3.20;;
912;SDS011;443;51.448;7.028;2023-12-20T02:59:36;4.50;;;3.13;;
912;SDS011;443;51.448;7.028;2023-12-20T03:02:03;9.40;;;3.93;;
912;SDS011;443;51.448;7.028;2023-12-20T03:04:30;10.03;;;5.00;;
912;SDS011;443;51.448;7.028;2023-12-20T03:06:56;9.50;;;4.30;;
912;SDS011;443;51.448;7.028;2023-12-20T03:09:23;9.00;;;5.33;;
912;SDS011;443;51.448;7.028;2023-12-20T03:11:50;10.53;;;2.80;;
912;SDS011;443;51.448;7.028;2023-12-20T03:14:18;3.50;;;2.40;;
912;SDS011;443;51.448;7.028;2023-12-20T03:16:46;8.73;;;3.17;;
912;SDS011;443;51.448;7.028;2023-12-20T03:19:13;9.00;;;3.93;;
912;SDS011;443;51.448;7.028;2023-12-20T03:21:41;5.87;;;2.63;;
912;SDS011;443;51.448;7.028;2023-12-20T03:24:07;6.73;;;3.60;;
912;SDS011;443;51.448;7.028;2023-12-20T03:26:34;5.47;;;3.00;;
912;SDS011;443;51.448;7.028;2023-12-20T03:29:01;10.13;;;3.70;;
912;SDS011;443;51.448;7.028;2023-12-20T03:31:29;8.00;;;2.90;;
912;SDS011;443;51.448;7.028;2023-12-20T03:33:55;7.63;;;3.60;;
912;SDS011;443;51.448;7.028;2023-12-20T03:36:22;4.20;;;3.03;;
912;SDS011;443;51.448;7.028;2023-12-20T03:38:49;7.87;;;3.60;;
912;SDS011;443;51.448;7.028;2023-12-20T03:41:16;9.13;;;3.23;;
912;SDS011;443;51.448;7.028;2023-12-20T03:43:42;10.30;;;3.27;;
912;SDS011;443;51.448;7.028;2023-12-20T03:46:09;4.47;;;1.80;;
912;SDS011;443;51.448;7.028;2023-12-20T03:48:37;2.40;;;1.60;;
912;SDS011;443;51.448;7.028;2023-12-20T03:51:04;10.17;;;2.60;;
912;SDS011;443;51.448;7.028;2023-12-20T03:53:31;5.30;;;2.87;;
912;SDS011;443;51.448;7.028;2023-12-20T03:55:57;5.77;;;2.77;;
912;SDS011;443;51.448;7.028;2023-12-20T03:58:25;4.50;;;2.00;;
912;SDS011;443;51.448;7.028;2023-12-20T04:00:51;10.43;;;2.40;;
912;SDS011;443;51.448;7.028;2023-12-20T04:03:18;12.53;;;3.30;;
912;SDS011;443;51.448;7.028;2023-12-20T04:05:46;6.03;;;2.27;;
912;SDS011;443;51.448;7.028;2023-12-20T04:08:13;5.43;;;1.97;;
912;SDS011;443;51.448;7.028;2023-12-20T04:10:40;4.90;;;1.50;;
912;SDS011;443;51.448;7.028;2023-12-20T04:13:06;5.00;;;2.17;;
912;SDS011;443;51.448;7.028;2023-12-20T04:15:33;7.20;;;1.80;;
912;SDS011;443;51.448;7.028;2023-12-20T04:18:00;5.30;;;1.80;;
912;SDS011;443;51.448;7.028;2023-12-20T04:20:27;4.27;;;2.33;;
912;SDS011;443;51.448;7.028;2023-12-20T04:22:55;4.57;;;1.87;;
912;SDS011;443;51.448;7.028;2023-12-20T04:25:21;4.60;;;2.13;;
912;SDS011;443;51.448;7.028;2023-12-20T04:27:48;6.33;;;2.80;;
912;SDS011;443;51.448;7.028;2023-12-20T04:30:15;3.57;;;2.20;;
912;SDS011;443;51.448;7.028;2023-12-20T04:32:42;10.83;;;2.80;;
912;SDS011;443;51.448;7.028;2023-12-20T04:35:09;10.70;;;2.80;;
912;SDS011;443;51.448;7.028;2023-12-20T04:37:35;9.23;;;2.50;;
912;SDS011;443;51.448;7.028;2023-12-20T04:40:04;5.90;;;2.50;;
912;SDS011;443;51.448;7.028;2023-12-20T04:42:32;4.47;;;2.03;;
912;SDS011;443;51.448;7.028;2023-12-20T04:44:59;4.63;;;1.50;;
912;SDS011;443;51.448;7.028;2023-12-20T04:47:26;7.47;;;2.80;;
912;SDS011;443;51.448;7.028;2023-12-20T04:49:52;8.83;;;3.40;;
912;SDS011;443;51.448;7.028;2023-12-20T04:52:19;6.00;;;3.00;;
912;SDS011;443;51.448;7.028;2023-12-20T04:54:46;11.97;;;3.23;;
912;SDS011;443;51.448;7.028;2023-12-20T04:57:14;4.47;;;2.40;;
912;SDS011;443;51.448;7.028;2023-12-20T04:59:40;3.50;;;3.10;;
912;SDS011;443;51.448;7.028;2023-12-20T05:02:06;5.53;;;2.07;;
912;SDS011;443;51.448;7.028;2023-12-20T05:04:33;4.37;;;2.20;;
912;SDS011;443;51.448;7.028;2023-12-20T05:07:00;10.30;;;4.37;;
912;SDS011;443;51.448;7.028;2023-12-20T05:09:26;7.60;;;3.90;;
912;SDS011;443;51.448;7.028;2023-12-20T05:11:53;6.80;;;3.37;;
912;SDS011;443;51.448;7.028;2023-12-20T05:14:21;5.60;;;2.70;;
912;SDS011;443;51.448;7.028;2023-12-20T05:16:48;12.83;;;2.77;;
912;SDS011;443;51.448;7.028;2023-12-20T05:19:15;5.80;;;2.30;;
912;SDS011;443;51.448;7.028;2023-12-20T05:21:41;7.27;;;2.30;;
912;SDS011;443;51.448;7.028;2023-12-20T05:24:08;9.57;;;2.90;;
912;SDS011;443;51.448;7.028;2023-12-20T05:26:35;17.83;;;3.80;;
912;SDS011;443;51.448;7.028;2023-12-20T05:29:01;8.07;;;2.30;;
912;SDS011;443;51.448;7.028;2023-12-20T05:31:30;3.80;;;1.20;;
912;SDS011;443;51.448;7.028;2023-12-20T05:33:57;7.50;;;2.20;;
912;SDS011;443;51.448;7.028;2023-12-20T05:36:24;11.33;;;4.03;;
912;SDS011;443;51.448;7.028;2023-12-20T05:38:51;12.43;;;3.83;;
912;SDS011;443;51.448;7.028;2023-12-20T05:41:18;5.70;;;2.20;;
912;SDS011;443;51.448;7.028;2023-12-20T05:43:46;10.10;;;3.43;;
912;SDS011;443;51.448;7.028;2023-12-20T05:46:13;9.30;;;3.57;;
912;SDS011;443;51.448;7.028;2023-12-20T05:48:41;8.93;;;3.20;;
912;SDS011;443;51.448;7.028;2023-12-20T05:51:10;10.17;;;4.43;;
912;SDS011;443;51.448;7.028;2023-12-20T05:53:37;14.10;;;4.07;;
912;SDS011;443;51.448;7.028;2023-12-20T05:56:06;8.93;;;3.27;;
912;SDS011;443;51.448;7.028;2023-12-20T05:58:33;7.53;;;4.27;;
912;SDS011;443;51.448;7.028;2023-12-20T06:01:00;13.37;;;4.80;;
912;SDS011;443;51.448;7.028;2023-12-20T06:03:27;5.20;;;3.60;;
912;SDS011;443;51.448;7.028;2023-12-20T06:05:55;16.43;;;3.87;;
912;SDS011;443;51.448;7.028;2023-12-20T06:08:21;14.73;;;4.20;;
912;SDS011;443;51.448;7.028;2023-12-20T06:10:49;5.87;;;3.20;;
912;SDS011;443;51.448;7.028;2023-12-20T06:13:15;7.87;;;3.97;;
912;SDS011;443;51.448;7.028;2023-12-20T06:15:42;12.77;;;4.63;;
912;SDS011;443;51.448;7.028;2023-12-20T06:18:09;9.43;;;4.23;;
912;SDS011;443;51.448;7.028;2023-12-20T06:20:35;7.53;;;3.30;;
912;SDS011;443;51.448;7.028;2023-12-20T06:23:04;8.00;;;2.77;;
912;SDS011;443;51.448;7.028;2023-12-20T06:25:31;12.90;;;4.40;;
912;SDS011;443;51.448;7.028;2023-12-20T06:27:57;8.90;;;4.40;;
912;SDS011;443;51.448;7.028;2023-12-20T06:30:24;10.30;;;4.40;;
912;SDS011;443;51.448;7.028;2023-12-20T06:32:52;6.40;;;4.30;;
912;SDS011;443;51.448;7.028;2023-12-20T06:35:19;9.50;;;4.23;;
912;SDS011;443;51.448;7.028;2023-12-20T06:37:46;6.00;;;4.57;;
912;SDS011;443;51.448;7.028;2023-12-20T06:40:14;12.47;;;4.10;;
912;SDS011;443;51.448;7.028;2023-12-20T06:42:41;12.37;;;5.30;;
912;SDS011;443;51.448;7.028;2023-12-20T06:45:08;6.23;;;3.53;;
912;SDS011;443;51.448;7.028;2023-12-20T06:47:35;9.37;;;4.30;;
912;SDS011;443;51.448;7.028;2023-12-20T06:50:02;9.50;;;3.37;;
912;SDS011;443;51.448;7.028;2023-12-20T06:52:29;12.40;;;4.90;;
912;SDS011;443;51.448;7.028;2023-12-20T06:54:56;6.97;;;4.07;;
912;SDS011;443;51.448;7.028;2023-12-20T06:57:24;9.13;;;4.27;;
912;SDS011;443;51.448;7.028;2023-12-20T06:59:51;8.80;;;4.40;;
912;SDS011;443;51.448;7.028;2023-12-20T07:02:18;11.50;;;4.30;;
912;SDS011;443;51.448;7.028;2023-12-20T07:04:46;6.23;;;4.70;;
912;SDS011;443;51.448;7.028;2023-12-20T07:07:12;5.97;;;3.97;;
912;SDS011;443;51.448;7.028;2023-12-20T07:09:39;9.37;;;4.50;;
912;SDS011;443;51.448;7.028;2023-12-20T07:12:07;11.40;;;4.07;;
912;SDS011;443;51.448;7.028;2023-12-20T07:14:35;6.57;;;3.77;;
912;SDS011;443;51.448;7.028;2023-12-20T07:17:02;9.73;;;3.77;;
912;SDS011;443;51.448;7.028;2023-12-20T07:19:29;11.30;;;3.77;;
912;SDS011;443;51.448;7.028;2023-12-20T07:21:57;8.37;;;3.07;;
912;SDS011;443;51.448;7.028;2023-12-20T07:24:23;12.53;;;3.87;;
912;SDS011;443;51.448;7.028;2023-12-20T07:26:50;10.77;;;3.37;;
912;SDS011;443;51.448;7.028;2023-12-20T07:29:17;7.90;;;3.70;;
912;SDS011;443;51.448;7.028;2023-12-20T07:31:45;17.43;;;4.80;;
912;SDS011;443;51.448;7.028;2023-12-20T07:34:12;10.03;;;5.00;;
912;SDS011;443;51.448;7.028;2023-12-20T07:36:38;8.07;;;3.70;;
912;SDS011;443;51.448;7.028;2023-12-20T07:39:05;8.97;;;3.30;;
912;SDS011;443;51.448;7.028;2023-12-20T07:41:32;9.23;;;3.53;;
912;SDS011;443;51.448;7.028;2023-12-20T07:43:59;11.30;;;4.23;;
912;SDS011;443;51.448;7.028;2023-12-20T07:46:26;6.70;;;3.53;;
912;SDS011;443;51.448;7.028;2023-12-20T07:48:54;10.87;;;3.60;;
912;SDS011;443;51.448;7.028;2023-12-20T07:51:20;11.60;;;4.33;;
912;SDS011;443;51.448;7.028;2023-12-20T07:53:47;8.23;;;3.63;;
912;SDS011;443;51.448;7.028;2023-12-20T07:56:14;12.17;;;4.83;;
912;SDS011;443;51.448;7.028;2023-12-20T07:58:41;6.93;;;4.53;;
912;SDS011;443;51.448;7.028;2023-12-20T08:01:08;10.73;;;3.97;;
912;SDS011;443;51.448;7.028;2023-12-20T08:03:35;9.20;;;4.10;;
912;SDS011;443;51.448;7.028;2023-12-20T08:06:03;7.00;;;4.43;;
912;SDS011;443;51.448;7.028;2023-12-20T08:08:30;6.90;;;4.60;;
912;SDS011;443;51.448;7.028;2023-12-20T08:10:57;4.10;;;2.80;;
912;SDS011;443;51.448;7.028;2023-12-20T08:13:25;11.27;;;4.80;;
912;SDS011;443;51.448;7.028;2023-12-20T08:15:52;8.07;;;4.13;;
912;SDS011;443;51.448;7.028;2023-12-20T08:18:20;8.53;;;3.57;;
912;SDS011;443;51.448;7.028;2023-12-20T08:20:47;6.90;;;3.30;;
912;SDS011;443;51.448;7.028;2023-12-20T08:23:16;7.93;;;3.67;;
912;SDS011;443;51.448;7.028;2023-12-20T08:25:42;10.20;;;4.60;;
912;SDS011;443;51.448;7.028;2023-12-20T08:28:09;10.67;;;4.10;;
912;SDS011;443;51.448;7.028;2023-12-20T08:30:36;7.37;;;3.33;;
912;SDS011;443;51.448;7.028;2023-12-20T08:33:03;4.90;;;3.80;;
912;SDS011;443;51.448;7.028;2023-12-20T08:35:30;10.73;;;6.27;;
912;SDS011;443;51.448;7.028;2023-12-20T08:37:57;10.80;;;4.17;;
912;SDS011;443;51.448;7.028;2023-12-20T08:40:25;7.47;;;4.07;;
912;SDS011;443;51.448;7.028;2023-12-20T08:42:51;12.57;;;4.37;;
912;SDS011;443;51.448;7.028;2023-12-20T08:45:18;7.23;;;3.30;;
912;SDS011;443;51.448;7.028;2023-12-20T08:47:45;6.73;;;3.90;;
912;SDS011;443;51.448;7.028;2023-12-20T08:50:12;12.87;;;5.20;;
912;SDS011;443;51.448;7.028;2023-12-20T08:52:40;10.87;;;3.47;;
912;SDS011;443;51.448;7.028;2023-12-20T08:55:07;9.57;;;4.23;;
912;SDS011;443;51.448;7.028;2023-12-20T08:57:36;6.83;;;3.17;;
912;SDS011;443;51.448;7.028;2023-12-20T09:00:03;6.13;;;3.83;;
912;SDS011;443;51.448;7.028;2023-12-20T09:02:32;11.13;;;3.43;;
912;SDS011;443;51.448;7.028;2023-12-20T09:05:01;11.97;;;3.20;;
912;SDS011;443;51.448;7.028;2023-12-20T09:07:28;10.30;;;3.30;;
912;SDS011;443;51.448;7.028;2023-12-20T09:09:56;9.97;;;3.20;;
912;SDS011;443;51.448;7.028;2023-12-20T09:12:22;3.83;;;2.33;;
912;SDS011;443;51.448;7.028;2023-12-20T09:14:51;8.93;;;3.50;;
912;SDS011;443;51.448;7.028;2023-12-20T09:17:18;10.93;;;4.30;;
912;SDS011;443;51.448;7.028;2023-12-20T09:19:45;4.37;;;2.40;;
912;SDS011;443;51.448;7.028;2023-12-20T09:22:12;10.63;;;2.80;;
912;SDS011;443;51.448;7.028;2023-12-20T09:24:39;5.00;;;2.50;;
912;SDS011;443;51.448;7.028;2023-12-20T09:27:05;5.77;;;4.27;;
912;SDS011;443;51.448;7.028;2023-12-20T09:29:32;10.60;;;3.10;;
912;SDS011;443;51.448;7.028;2023-12-20T09:32:01;12.50;;;3.77;;
912;SDS011;443;51.448;7.028;2023-12-20T09:34:27;7.17;;;3.93;;
912;SDS011;443;51.448;7.028;2023-12-20T09:36:54;11.60;;;2.30;;
912;SDS011;443;51.448;7.028;2023-12-20T09:39:21;10.97;;;3.50;;
912;SDS011;443;51.448;7.028;2023-12-20T09:41:49;14.03;;;4.53;;
912;SDS011;443;51.448;7.028;2023-12-20T09:44:25;7.40;;;2.90;;
912;SDS011;443;51.448;7.028;2023-12-20T09:46:52;12.63;;;3.47;;
912;SDS011;443;51.448;7.028;2023-12-20T09:49:21;16.10;;;3.73;;
912;SDS011;443;51.448;7.028;2023-12-20T09:51:49;13.80;;;3.53;;
912;SDS011;443;51.448;7.028;2023-12-20T09:54:17;6.40;;;2.77;;
912;SDS011;443;51.448;7.028;2023-12-20T09:56:44;9.60;;;3.40;;
912;SDS011;443;51.448;7.028;2023-12-20T09:59:11;11.03;;;3.63;;
912;SDS011;443;51.448;7.028;2023-12-20T10:01:39;14.00;;;3.63;;
912;SDS011;443;51.448;7.028;2023-12-20T10:04:07;4.50;;;2.50;;
912;SDS011;443;51.448;7.028;2023-12-20T10:06:38;9.60;;;3.10;;
912;SDS011;443;51.448;7.028;2023-12-20T10:09:05;4.60;;;2.90;;
912;SDS011;443;51.448;7.028;2023-12-20T10:11:34;8.40;;;3.50;;
912;SDS011;443;51.448;7.028;2023-12-20T10:14:02;7.50;;;2.53;;
912;SDS011;443;51.448;7.028;2023-12-20T10:16:29;8.40;;;2.80;;
912;SDS011;443;51.448;7.028;2023-12-20T10:18:57;8.83;;;3.00;;
912;SDS011;443;51.448;7.028;2023-12-20T10:21:25;8.80;;;3.60;;
912;SDS011;443;51.448;7.028;2023-12-20T10:23:53;9.60;;;3.40;;
912;SDS011;443;51.448;7.028;2023-12-20T10:26:20;5.00;;;2.63;;
912;SDS011;443;51.448;7.028;2023-12-20T10:28:49;5.47;;;2.30;;
912;SDS011;443;51.448;7.028;2023-12-20T10:31:25;7.43;;;2.63;;
912;SDS011;443;51.448;7.028;2023-12-20T10:33:53;10.37;;;2.97;;
912;SDS011;443;51.448;7.028;2023-12-20T10:36:19;6.00;;;3.07;;
912;SDS011;443;51.448;7.028;2023-12-20T10:38:46;11.80;;;3.50;;
912;SDS011;443;51.448;7.028;2023-12-20T10:41:18;8.33;;;4.30;;
912;SDS011;443;51.448;7.028;2023-12-20T10:43:50;9.73;;;3.43;;
912;SDS011;443;51.448;7.028;2023-12-20T10:46:17;9.27;;;3.90;;
912;SDS011;443;51.448;7.028;2023-12-20T10:48:45;10.93;;;3.87;;
912;SDS011;443;51.448;7.028;2023-12-20T10:51:14;11.73;;;4.13;;
912;SDS011;443;51.448;7.028;2023-12-20T10:53:45;13.30;;;4.30;;
912;SDS011;443;51.448;7.028;2023-12-20T10:56:15;7.80;;;3.77;;
912;SDS011;443;51.448;7.028;2023-12-20T10:58:44;7.30;;;3.10;;
912;SDS011;443;51.448;7.028;2023-12-20T11:01:12;9.30;;;3.50;;
912;SDS011;443;51.448;7.028;2023-12-20T11:03:43;6.53;;;3.13;;
912;SDS011;443;51.448;7.028;2023-12-20T11:06:14;12.03;;;4.10;;
912;SDS011;443;51.448;7.028;2023-12-20T11:09:07;6.50;;;3.17;;
912;SDS011;443;51.448;7.028;2023-12-20T11:11:41;8.93;;;2.90;;
912;SDS011;443;51.448;7.028;2023-12-20T11:14:34;6.53;;;2.57;;
912;SDS011;443;51.448;7.028;2023-12-20T11:17:09;5.10;;;2.53;;
912;SDS011;443;51.448;7.028;2023-12-20T11:19:42;6.23;;;4.43;;
912;SDS011;443;51.448;7.028;2023-12-20T11:22:31;5.90;;;3.33;;
912;SDS011;443;51.448;7.028;2023-12-20T11:25:03;12.67;;;2.77;;
912;SDS011;443;51.448;7.028;2023-12-20T11:27:33;7.70;;;2.97;;
912;SDS011;443;51.448;7.028;2023-12-20T11:30:02;5.70;;;2.70;;
912;SDS011;443;51.448;7.028;2023-12-20T11:32:31;12.43;;;3.20;;
912;SDS011;443;51.448;7.028;2023-12-20T11:35:00;5.23;;;2.63;;
912;SDS011;443;51.448;7.028;2023-12-20T11:37:42;11.17;;;3.73;;
912;SDS011;443;51.448;7.028;2023-12-20T11:40:11;7.40;;;3.33;;
912;SDS011;443;51.448;7.028;2023-12-20T11:42:41;8.80;;;2.93;;
912;SDS011;443;51.448;7.028;2023-12-20T11:45:10;24.03;;;5.03;;
912;SDS011;443;51.448;7.028;2023-12-20T11:47:39;11.17;;;3.40;;
912;SDS011;443;51.448;7.028;2023-12-20T11:50:07;6.73;;;3.20;;
912;SDS011;443;51.448;7.028;2023-12-20T11:52:34;18.70;;;4.50;;
912;SDS011;443;51.448;7.028;2023-12-20T11:55:01;7.90;;;3.20;;
912;SDS011;443;51.448;7.028;2023-12-20T11:57:28;8.23;;;3.33;;
912;SDS011;443;51.448;7.028;2023-12-20T11:59:55;5.60;;;3.33;;
912;SDS011;443;51.448;7.028;2023-12-20T12:02:23;8.53;;;4.33;;
912;SDS011;443;51.448;7.028;2023-12-20T12:04:50;13.87;;;4.13;;
912;SDS011;443;51.448;7.028;2023-12-20T12:07:17;13.30;;;4.17;;
912;SDS011;443;51.448;7.028;2023-12-20T12:09:45;10.73;;;4.00;;
912;SDS011;443;51.448;7.028;2023-12-20T12:12:12;12.27;;;3.90;;
912;SDS011;443;51.448;7.028;2023-12-20T12:14:39;13.30;;;4.30;;
912;SDS011;443;51.448;7.028;2023-12-20T12:17:09;19.77;;;5.17;;
912;SDS011;443;51.448;7.028;2023-12-20T12:19:38;9.50;;;3.57;;
912;SDS011;443;51.448;7.028;2023-12-20T12:22:05;9.77;;;5.10;;
912;SDS011;443;51.448;7.028;2023-12-20T12:24:35;8.97;;;4.17;;
912;SDS011;443;51.448;7.028;2023-12-20T12:27:02;9.70;;;3.63;;
912;SDS011;443;51.448;7.028;2023-12-20T12:29:29;7.93;;;4.63;;
912;SDS011;443;51.448;7.028;2023-12-20T12:31:56;8.40;;;4.43;;
912;SDS011;443;51.448;7.028;2023-12-20T12:34:23;10.53;;;4.33;;
912;SDS011;443;51.448;7.028;2023-12-20T12:36:53;14.90;;;5.63;;
912;SDS011;443;51.448;7.028;2023-12-20T12:39:19;10.83;;;4.50;;
912;SDS011;443;51.448;7.028;2023-12-20T12:41:46;4.87;;;3.00;;
912;SDS011;443;51.448;7.028;2023-12-20T12:44:13;7.00;;;3.67;;
912;SDS011;443;51.448;7.028;2023-12-20T12:46:39;6.60;;;3.00;;
912;SDS011;443;51.448;7.028;2023-12-20T12:49:06;13.03;;;4.13;;
912;SDS011;443;51.448;7.028;2023-12-20T12:51:33;9.50;;;3.97;;
912;SDS011;443;51.448;7.028;2023-12-20T12:54:02;11.73;;;3.70;;
912;SDS011;443;51.448;7.028;2023-12-20T12:56:29;9.17;;;4.97;;
912;SDS011;443;51.448;7.028;2023-12-20T12:58:55;6.50;;;3.43;;
912;SDS011;443;51.448;7.028;2023-12-20T13:01:22;10.10;;;3.43;;
912;SDS011;443;51.448;7.028;2023-12-20T13:03:49;11.47;;;4.17;;
912;SDS011;443;51.448;7.028;2023-12-20T13:06:16;13.00;;;4.07;;
912;SDS011;443;51.448;7.028;2023-12-20T13:08:42;5.83;;;2.73;;
912;SDS011;443;51.448;7.028;2023-12-20T13:11:11;11.10;;;4.40;;
912;SDS011;443;51.448;7.028;2023-12-20T13:13:38;9.40;;;4.17;;
912;SDS011;443;51.448;7.028;2023-12-20T13:16:05;8.47;;;3.60;;
912;SDS011;443;51.448;7.028;2023-12-20T13:18:32;10.50;;;3.53;;
912;SDS011;443;51.448;7.028;2023-12-20T13:20:59;5.57;;;3.53;;
912;SDS011;443;51.448;7.028;2023-12-20T13:23:26;6.40;;;3.10;;
912;SDS011;443;51.448;7.028;2023-12-20T13:25:52;8.73;;;4.73;;
912;SDS011;443;51.448;7.028;2023-12-20T13:28:21;4.97;;;3.80;;
912;SDS011;443;51.448;7.028;2023-12-20T13:30:47;6.20;;;3.70;;
912;SDS011;443;51.448;7.028;2023-12-20T13:33:14;8.10;;;3.90;;
912;SDS011;443;51.448;7.028;2023-12-20T13:35:41;6.57;;;3.60;;
912;SDS011;443;51.448;7.028;2023-12-20T13:38:07;11.43;;;4.30;;
912;SDS011;443;51.448;7.028;2023-12-20T13:40:34;7.77;;;3.93;;
912;SDS011;443;51.448;7.028;2023-12-20T13:43:01;6.93;;;3.90;;
912;SDS011;443;51.448;7.028;2023-12-20T13:45:30;5.20;;;4.40;;
912;SDS011;443;51.448;7.028;2023-12-20T13:47:57;7.53;;;4.13;;
912;SDS011;443;51.448;7.028;2023-12-20T13:50:24;9.43;;;5.23;;
912;SDS011;443;51.448;7.028;2023-12-20T13:52:52;6.80;;;3.90;;
912;SDS011;443;51.448;7.028;2023-12-20T13:55:19;6.30;;;4.67;;
912;SDS011;443;51.448;7.028;2023-12-20T13:57:47;8.90;;;5.20;;
912;SDS011;443;51.448;7.028;2023-12-20T14:00:14;12.53;;;6.80;;
912;SDS011;443;51.448;7.028;2023-12-20T14:02:42;12.07;;;5.60;;
912;SDS011;443;51.448;7.028;2023-12-20T14:05:10;8.03;;;4.30;;
912;SDS011;443;51.448;7.028;2023-12-20T14:07:35;8.40;;;4.53;;
912;SDS011;443;51.448;7.028;2023-12-20T14:10:03;7.50;;;4.37;;
912;SDS011;443;51.448;7.028;2023-12-20T14:12:30;12.20;;;4.73;;
912;SDS011;443;51.448;7.028;2023-12-20T14:15:00;7.07;;;4.13;;
912;SDS011;443;51.448;7.028;2023-12-20T14:17:27;6.20;;;4.63;;
912;SDS011;443;51.448;7.028;2023-12-20T14:19:55;12.47;;;5.70;;
912;SDS011;443;51.448;7.028;2023-12-20T14:22:22;9.13;;;5.33;;
912;SDS011;443;51.448;7.028;2023-12-20T14:24:50;9.80;;;5.70;;
912;SDS011;443;51.448;7.028;2023-12-20T14:27:17;11.30;;;4.87;;
912;SDS011;443;51.448;7.028;2023-12-20T14:29:46;7.90;;;5.00;;
912;SDS011;443;51.448;7.028;2023-12-20T14:32:13;12.80;;;8.07;;
912;SDS011;443;51.448;7.028;2023-12-20T14:34:40;6.50;;;5.90;;
912;SDS011;443;51.448;7.028;2023-12-20T14:37:08;8.67;;;6.27;;
912;SDS011;443;51.448;7.028;2023-12-20T14:39:35;11.53;;;6.30;;
912;SDS011;443;51.448;7.028;2023-12-20T14:42:04;13.20;;;5.67;;
912;SDS011;443;51.448;7.028;2023-12-20T14:44:31;15.83;;;7.63;;
912;SDS011;443;51.448;7.028;2023-12-20T14:46:58;7.90;;;6.17;;
912;SDS011;443;51.448;7.028;2023-12-20T14:49:27;8.20;;;5.17;;
912;SDS011;443;51.448;7.028;2023-12-20T14:51:54;6.17;;;5.40;;
912;SDS011;443;51.448;7.028;2023-12-20T14:54:22;7.77;;;5.63;;
912;SDS011;443;51.448;7.028;2023-12-20T14:56:49;8.30;;;5.60;;
912;SDS011;443;51.448;7.028;2023-12-20T14:59:16;9.70;;;5.60;;
912;SDS011;443;51.448;7.028;2023-12-20T15:01:43;9.63;;;5.10;;
912;SDS011;443;51.448;7.028;2023-12-20T15:04:10;6.53;;;4.97;;
912;SDS011;443;51.448;7.028;2023-12-20T15:06:36;15.93;;;5.50;;
912;SDS011;443;51.448;7.028;2023-12-20T15:09:03;7.73;;;4.70;;
912;SDS011;443;51.448;7.028;2023-12-20T15:11:32;6.33;;;5.27;;
912;SDS011;443;51.448;7.028;2023-12-20T15:13:59;5.30;;;3.87;;
912;SDS011;443;51.448;7.028;2023-12-20T15:16:26;8.20;;;4.37;;
912;SDS011;443;51.448;7.028;2023-12-20T15:18:53;9.40;;;5.23;;
912;SDS011;443;51.448;7.028;2023-12-20T15:21:20;7.00;;;4.20;;
912;SDS011;443;51.448;7.028;2023-12-20T15:23:55;10.50;;;5.67;;
912;SDS011;443;51.448;7.028;2023-12-20T15:26:31;8.70;;;5.50;;
912;SDS011;443;51.448;7.028;2023-12-20T15:28:58;6.03;;;4.77;;
912;SDS011;443;51.448;7.028;2023-12-20T15:31:25;7.80;;;4.60;;
912;SDS011;443;51.448;7.028;2023-12-20T15:33:52;11.43;;;4.47;;
912;SDS011;443;51.448;7.028;2023-12-20T15:36:19;10.93;;;5.83;;
912;SDS011;443;51.448;7.028;2023-12-20T15:38:46;14.43;;;5.80;;
912;SDS011;443;51.448;7.028;2023-12-20T15:41:16;7.20;;;4.13;;